createdAt,value
2024-01-06T00:01:49.112Z,95497.50
2024-01-06T00:04:16.041Z,95500.94
2024-01-06T00:06:42.954Z,95510.16
2024-01-06T00:09:09.776Z,95502.31
2024-01-06T00:11:39.602Z,95507.09
2024-01-06T00:14:06.425Z,95508.66
2024-01-06T00:16:33.185Z,95506.84
2024-01-06T00:19:00.093Z,95511.09
2024-01-06T00:21:26.966Z,95511.84
2024-01-06T00:23:53.746Z,95499.19
2024-01-06T00:26:20.506Z,95511.50
2024-01-06T00:28:50.399Z,95513.75
2024-01-06T00:31:17.292Z,95507.09
2024-01-06T00:33:47.201Z,95509.44
2024-01-06T00:36:14.005Z,95510.69
2024-01-06T00:38:40.802Z,95516.00
2024-01-06T00:41:07.570Z,95508.72
2024-01-06T00:43:34.446Z,95511.16
2024-01-06T00:46:01.207Z,95511.47
2024-01-06T00:48:28.105Z,95513.25
2024-01-06T00:50:54.989Z,95514.25
2024-01-06T00:53:24.833Z,95513.44
2024-01-06T00:55:51.594Z,95511.44
2024-01-06T00:58:18.379Z,95508.31
2024-01-06T01:00:48.321Z,95519.00
2024-01-06T01:03:17.255Z,95516.41
2024-01-06T01:05:47.213Z,95522.38
2024-01-06T01:08:14.085Z,95528.53
2024-01-06T01:10:40.873Z,95525.59
2024-01-06T01:13:07.711Z,95537.81
2024-01-06T01:15:34.553Z,95542.81
2024-01-06T01:18:01.555Z,95541.16
2024-01-06T01:20:28.517Z,95539.00
2024-01-06T01:22:55.286Z,95540.91
2024-01-06T01:25:22.061Z,95538.94
2024-01-06T01:27:48.902Z,95542.25
2024-01-06T01:30:15.954Z,95546.03
2024-01-06T01:32:46.062Z,95553.75
2024-01-06T01:35:16.000Z,95560.72
2024-01-06T01:37:45.815Z,95572.59
2024-01-06T01:40:12.735Z,95578.63
2024-01-06T01:42:39.527Z,95577.00
2024-01-06T01:45:06.481Z,95578.22
2024-01-06T01:47:33.362Z,95576.59
2024-01-06T01:50:00.356Z,95582.13
2024-01-06T01:52:27.259Z,95589.78
2024-01-06T01:54:54.133Z,95584.97
2024-01-06T01:57:21.003Z,95590.22
2024-01-06T01:59:47.849Z,95582.19
2024-01-06T02:02:17.718Z,95584.56
2024-01-06T02:04:47.607Z,95584.53
2024-01-06T02:07:14.407Z,95588.94
2024-01-06T02:09:41.306Z,95593.78
2024-01-06T02:12:11.191Z,95598.81
2024-01-06T02:14:38.027Z,95595.56
2024-01-06T02:17:07.816Z,95597.44
2024-01-06T02:19:34.704Z,95594.00
2024-01-06T02:22:01.689Z,95601.44
2024-01-06T02:24:28.352Z,95608.44
2024-01-06T02:26:54.962Z,95617.13
2024-01-06T02:29:21.557Z,95609.28
2024-01-06T02:31:48.225Z,95613.13
2024-01-06T02:34:15.002Z,95604.06
2024-01-06T02:36:41.720Z,95611.13
2024-01-06T02:39:08.416Z,95610.72
2024-01-06T02:41:35.098Z,95600.28
2024-01-06T02:44:01.692Z,95602.88
2024-01-06T02:46:28.299Z,95605.69
2024-01-06T02:48:55.005Z,95608.50
2024-01-06T02:51:21.812Z,95610.72
2024-01-06T02:53:48.431Z,95620.31
2024-01-06T02:56:15.078Z,95615.31
2024-01-06T02:58:41.678Z,95610.66
2024-01-06T03:01:08.525Z,95610.69
2024-01-06T03:03:35.314Z,95611.06
2024-01-06T03:06:02.016Z,95608.88
2024-01-06T03:08:28.664Z,95615.69
2024-01-06T03:10:55.310Z,95613.47
2024-01-06T03:13:21.951Z,95605.47
2024-01-06T03:15:48.642Z,95609.28
2024-01-06T03:18:15.583Z,95604.06
2024-01-06T03:20:42.337Z,95606.88
2024-01-06T03:23:09.138Z,95606.88
2024-01-06T03:25:35.930Z,95600.03
2024-01-06T03:28:02.675Z,95609.47
2024-01-06T03:30:29.525Z,95610.50
2024-01-06T03:32:56.494Z,95614.72
2024-01-06T03:35:23.350Z,95613.50
2024-01-06T03:37:50.220Z,95612.47
2024-01-06T03:40:16.874Z,95613.06
2024-01-06T03:42:43.545Z,95608.03
2024-01-06T03:45:10.187Z,95621.56
2024-01-06T03:47:36.943Z,95617.88
2024-01-06T03:50:03.610Z,95622.09
2024-01-06T03:52:30.250Z,95616.66
2024-01-06T03:54:56.941Z,95610.00
2024-01-06T03:57:23.755Z,95616.25
2024-01-06T03:59:53.118Z,95618.34
2024-01-06T04:02:19.743Z,95615.94
2024-01-06T04:04:46.444Z,95626.78
2024-01-06T04:07:13.101Z,95626.19
2024-01-06T04:09:39.745Z,95621.16
2024-01-06T04:12:06.352Z,95618.13
2024-01-06T04:14:32.946Z,95631.41
2024-01-06T04:16:59.574Z,95627.19
2024-01-06T04:19:26.253Z,95631.19
2024-01-06T04:21:52.989Z,95627.38
2024-01-06T04:24:19.699Z,95631.41
2024-01-06T04:26:46.467Z,95635.66
2024-01-06T04:29:13.160Z,95632.41
2024-01-06T04:31:39.873Z,95634.59
2024-01-06T04:34:06.763Z,95634.00
2024-01-06T04:36:33.533Z,95644.66
2024-01-06T04:39:00.365Z,95642.84
2024-01-06T04:41:27.155Z,95649.47
2024-01-06T04:43:53.966Z,95648.06
2024-01-06T04:46:20.762Z,95657.53
2024-01-06T04:48:47.606Z,95657.94
2024-01-06T04:51:17.500Z,95653.13
2024-01-06T04:53:44.300Z,95651.72
2024-01-06T04:56:11.065Z,95655.53
2024-01-06T04:58:40.904Z,95645.50
2024-01-06T05:01:07.797Z,95653.53
2024-01-06T05:03:34.746Z,95655.72
2024-01-06T05:06:04.651Z,95653.50
2024-01-06T05:08:31.412Z,95659.97
2024-01-06T05:10:58.252Z,95663.75
2024-01-06T05:13:25.043Z,95665.56
2024-01-06T05:15:55.097Z,95674.78
2024-01-06T05:18:25.176Z,95675.41
2024-01-06T05:20:52.008Z,95674.41
2024-01-06T05:23:18.763Z,95660.97
2024-01-06T05:25:45.549Z,95664.78
2024-01-06T05:28:12.325Z,95669.81
2024-01-06T05:30:39.269Z,95671.63
2024-01-06T05:33:06.271Z,95661.53
2024-01-06T05:35:34.453Z,95669.00
2024-01-06T05:38:01.925Z,95664.97
2024-01-06T05:40:31.717Z,95666.56
2024-01-06T05:42:58.592Z,95663.53
2024-01-06T05:45:27.518Z,95666.53
2024-01-06T05:47:55.932Z,95667.19
2024-01-06T05:50:22.702Z,95666.53
2024-01-06T05:52:49.533Z,95666.16
2024-01-06T05:55:16.319Z,95670.38
2024-01-06T05:57:46.113Z,95668.78
2024-01-06T06:00:15.891Z,95671.38
2024-01-06T06:02:42.703Z,95678.41
2024-01-06T06:05:12.514Z,95688.00
2024-01-06T06:07:42.364Z,95691.56
2024-01-06T06:10:12.276Z,95691.94
2024-01-06T06:12:39.159Z,95693.41
2024-01-06T06:15:05.971Z,95688.81
2024-01-06T06:17:32.869Z,95693.03
2024-01-06T06:20:02.695Z,95699.44
2024-01-06T06:22:32.554Z,95694.44
2024-01-06T06:24:59.326Z,95696.00
2024-01-06T06:27:29.115Z,95702.34
2024-01-06T06:29:55.938Z,95702.22
2024-01-06T06:32:22.782Z,95703.19
2024-01-06T06:34:49.709Z,95709.97
2024-01-06T06:37:16.527Z,95700.50
2024-01-06T06:39:43.374Z,95705.34
2024-01-06T06:42:13.345Z,95707.56
2024-01-06T06:44:40.174Z,95705.63
2024-01-06T06:47:06.947Z,95706.69
2024-01-06T06:49:33.806Z,95704.22
2024-01-06T06:52:00.720Z,95702.28
2024-01-06T06:54:27.530Z,95705.88
2024-01-06T06:56:54.333Z,95706.13
2024-01-06T06:59:21.210Z,95707.06
2024-01-06T07:01:48.012Z,95706.19
2024-01-06T07:04:17.954Z,95713.78
2024-01-06T07:06:47.768Z,95711.16
2024-01-06T07:09:19.144Z,95705.63
2024-01-06T07:11:47.016Z,95708.31
2024-01-06T07:14:13.779Z,95706.81
2024-01-06T07:16:40.554Z,95712.25
2024-01-06T07:19:07.507Z,95718.34
2024-01-06T07:21:34.353Z,95713.22
2024-01-06T07:24:04.176Z,95721.34
2024-01-06T07:26:33.972Z,95718.59
2024-01-06T07:29:03.807Z,95725.59
2024-01-06T07:31:30.660Z,95724.78
2024-01-06T07:33:57.564Z,95731.25
2024-01-06T07:36:27.467Z,95728.00
2024-01-06T07:38:54.321Z,95738.66
2024-01-06T07:41:21.074Z,95735.03
2024-01-06T07:43:47.881Z,95732.00
2024-01-06T07:46:15.668Z,95731.59
2024-01-06T07:48:46.570Z,95735.34
2024-01-06T07:51:16.576Z,95736.94
2024-01-06T07:53:43.345Z,95736.47
2024-01-06T07:56:11.328Z,95739.63
2024-01-06T07:58:38.092Z,95749.72
2024-01-06T08:01:07.962Z,95751.59
2024-01-06T08:03:37.826Z,95756.00
2024-01-06T08:06:07.824Z,95759.72
2024-01-06T08:08:37.668Z,95765.00
2024-01-06T08:11:04.500Z,95764.44
2024-01-06T08:13:34.264Z,95764.91
2024-01-06T08:16:01.068Z,95771.13
2024-01-06T08:18:28.035Z,95758.59
2024-01-06T08:20:57.938Z,95760.88
2024-01-06T08:23:24.805Z,95757.72
2024-01-06T08:25:51.638Z,95766.53
2024-01-06T08:28:18.399Z,95772.75
2024-01-06T08:30:48.361Z,95766.00
2024-01-06T08:33:15.433Z,95771.91
2024-01-06T08:35:45.341Z,95773.53
2024-01-06T08:38:12.174Z,95778.56
2024-01-06T08:40:42.018Z,95772.13
2024-01-06T08:43:08.879Z,95769.31
2024-01-06T08:45:35.885Z,95778.53
2024-01-06T08:48:02.857Z,95777.97
2024-01-06T08:50:29.670Z,95776.75
2024-01-06T08:52:56.510Z,95783.13
2024-01-06T08:55:23.291Z,95787.97
2024-01-06T08:57:50.103Z,95783.63
2024-01-06T09:00:16.961Z,95784.63
2024-01-06T09:02:46.954Z,95791.03
2024-01-06T09:05:32.168Z,95783.41
2024-01-06T09:07:58.928Z,95780.22
2024-01-06T09:10:25.682Z,95776.00
2024-01-06T09:12:52.525Z,95781.41
2024-01-06T09:15:19.391Z,95784.25
2024-01-06T09:17:46.279Z,95781.63
2024-01-06T09:20:13.074Z,95784.66
2024-01-06T09:22:39.866Z,95775.78
2024-01-06T09:25:06.617Z,95793.53
2024-01-06T09:27:33.470Z,95782.22
2024-01-06T09:30:00.332Z,95786.06
2024-01-06T09:32:27.168Z,95788.22
2024-01-06T09:34:54.221Z,95787.47
2024-01-06T09:37:21.076Z,95796.63
2024-01-06T09:39:47.935Z,95787.34
2024-01-06T09:42:14.848Z,95789.91
2024-01-06T09:44:41.734Z,95788.38
2024-01-06T09:47:08.581Z,95793.44
2024-01-06T09:49:35.362Z,95802.72
2024-01-06T09:52:02.887Z,95796.56
2024-01-06T09:54:29.799Z,95800.06
2024-01-06T09:56:56.558Z,95796.22
2024-01-06T09:59:23.336Z,95802.91
2024-01-06T10:01:50.111Z,95800.03
2024-01-06T10:04:20.512Z,95801.50
2024-01-06T10:06:49.363Z,95800.72
2024-01-06T10:09:16.203Z,95803.16
2024-01-06T10:11:42.996Z,95801.41
2024-01-06T10:14:09.802Z,95800.72
2024-01-06T10:16:36.612Z,95799.97
2024-01-06T10:19:03.473Z,95801.00
2024-01-06T10:21:30.276Z,95795.13
2024-01-06T10:23:57.028Z,95792.25
2024-01-06T10:26:23.840Z,95798.13
2024-01-06T10:28:50.671Z,95797.94
2024-01-06T10:31:17.526Z,95801.28
2024-01-06T10:33:44.548Z,95805.19
2024-01-06T10:36:11.493Z,95794.63
2024-01-06T10:38:38.280Z,95788.66
2024-01-06T10:41:05.064Z,95798.44
2024-01-06T10:43:31.865Z,95799.75
2024-01-06T10:45:58.839Z,95796.81
2024-01-06T10:48:25.825Z,95796.75
2024-01-06T10:50:52.725Z,95792.13
2024-01-06T10:53:19.574Z,95793.63
2024-01-06T10:55:46.390Z,95800.66
2024-01-06T10:58:13.260Z,95797.91
2024-01-06T11:00:40.293Z,95792.94
2024-01-06T11:03:07.508Z,95794.94
2024-01-06T11:05:34.513Z,95789.53
2024-01-06T11:08:01.412Z,95796.94
2024-01-06T11:10:28.022Z,95794.72
2024-01-06T11:12:54.772Z,95794.66
2024-01-06T11:15:21.418Z,95797.16
2024-01-06T11:17:48.275Z,95794.13
2024-01-06T11:20:15.084Z,95788.78
2024-01-06T11:22:41.768Z,95786.38
2024-01-06T11:25:10.853Z,95785.34
2024-01-06T11:30:28.309Z,95777.44
2024-01-06T11:32:55.215Z,95782.31
2024-01-06T11:35:21.976Z,95783.81
2024-01-06T11:37:49.069Z,95783.09
2024-01-06T11:40:15.679Z,95779.41
2024-01-06T11:42:43.563Z,95775.91
2024-01-06T11:45:10.288Z,95773.13
2024-01-06T11:47:37.123Z,95767.16
2024-01-06T11:50:03.785Z,95778.41
2024-01-06T11:52:30.470Z,95767.91
2024-01-06T11:54:57.273Z,95758.81
2024-01-06T11:57:23.945Z,95766.63
2024-01-06T11:59:50.706Z,95751.66
2024-01-06T12:02:17.388Z,95749.78
2024-01-06T12:04:44.043Z,95755.53
2024-01-06T12:07:10.684Z,95755.78
2024-01-06T12:09:37.613Z,95741.97
2024-01-06T12:12:07.514Z,95746.22
2024-01-06T12:14:34.382Z,95746.75
2024-01-06T12:17:01.000Z,95743.53
2024-01-06T12:19:27.726Z,95745.88
2024-01-06T12:21:54.471Z,95741.44
2024-01-06T12:24:21.108Z,95735.88
2024-01-06T12:26:47.773Z,95737.88
2024-01-06T12:29:15.222Z,95739.63
2024-01-06T12:31:42.058Z,95737.13
2024-01-06T12:34:08.906Z,95735.13
2024-01-06T12:36:35.638Z,95732.81
2024-01-06T12:39:02.310Z,95730.75
2024-01-06T12:41:28.947Z,95733.47
2024-01-06T12:43:55.588Z,95736.59
2024-01-06T12:46:22.176Z,95738.59
2024-01-06T12:48:48.927Z,95741.22
2024-01-06T12:51:15.784Z,95740.72
2024-01-06T12:53:42.426Z,95730.34
2024-01-06T12:56:09.014Z,95735.06
2024-01-06T12:58:35.653Z,95736.69
2024-01-06T13:01:02.485Z,95735.25
2024-01-06T13:03:29.290Z,95738.06
2024-01-06T13:05:56.039Z,95744.13
2024-01-06T13:08:22.655Z,95735.97
2024-01-06T13:10:49.273Z,95730.88
2024-01-06T13:13:15.942Z,95744.25
2024-01-06T13:15:42.885Z,95746.69
2024-01-06T13:18:09.825Z,95736.78
2024-01-06T13:20:36.700Z,95741.94
2024-01-06T13:23:03.445Z,95737.09
2024-01-06T13:25:30.267Z,95736.84
2024-01-06T13:27:57.138Z,95736.78
2024-01-06T13:30:24.031Z,95734.81
2024-01-06T13:32:50.915Z,95732.47
2024-01-06T13:35:17.833Z,95734.97
2024-01-06T13:37:44.672Z,95732.19
2024-01-06T13:40:11.504Z,95730.69
2024-01-06T13:42:38.331Z,95738.31
2024-01-06T13:45:05.181Z,95742.00
2024-01-06T13:47:31.956Z,95745.41
2024-01-06T13:49:59.056Z,95749.34
2024-01-06T13:52:25.981Z,95752.16
2024-01-06T13:54:52.859Z,95759.69
2024-01-06T13:57:19.695Z,95758.81
2024-01-06T13:59:46.520Z,95762.06
2024-01-06T14:02:13.305Z,95762.41
2024-01-06T14:04:40.219Z,95769.66
2024-01-06T14:07:07.064Z,95767.47
2024-01-06T14:09:33.949Z,95766.28
2024-01-06T14:12:00.797Z,95766.81
2024-01-06T14:14:27.584Z,95769.09
2024-01-06T14:16:54.377Z,95760.09
2024-01-06T14:19:21.185Z,95772.25
2024-01-06T14:21:48.037Z,95780.72
2024-01-06T14:24:14.842Z,95779.47
2024-01-06T14:26:41.729Z,95777.13
2024-01-06T14:29:08.551Z,95784.59
2024-01-06T14:31:35.498Z,95781.50
2024-01-06T14:34:02.464Z,95784.59
2024-01-06T14:36:29.461Z,95785.09
2024-01-06T14:38:56.249Z,95779.41
2024-01-06T14:41:23.102Z,95789.00
2024-01-06T14:43:49.882Z,95792.44
2024-01-06T14:46:16.703Z,95794.63
2024-01-06T14:48:43.586Z,95793.72
2024-01-06T14:51:13.499Z,95800.69
2024-01-06T14:53:40.281Z,95806.31
2024-01-06T14:56:07.109Z,95803.25
2024-01-06T14:58:33.930Z,95804.47
2024-01-06T15:01:00.891Z,95809.06
2024-01-06T15:03:27.846Z,95812.06
2024-01-06T15:05:54.717Z,95812.75
2024-01-06T15:08:21.539Z,95813.09
2024-01-06T15:10:48.385Z,95812.91
2024-01-06T15:13:15.150Z,95817.16
2024-01-06T15:15:41.979Z,95814.53
2024-01-06T15:18:08.899Z,95821.81
2024-01-06T15:20:35.748Z,95817.22
2024-01-06T15:23:02.356Z,95823.69
2024-01-06T15:25:28.975Z,95820.66
2024-01-06T15:27:55.626Z,95820.06
2024-01-06T15:30:22.329Z,95823.88
2024-01-06T15:32:49.081Z,95830.09
2024-01-06T15:35:15.733Z,95828.44
2024-01-06T15:37:42.416Z,95837.47
2024-01-06T15:40:09.174Z,95831.03
2024-01-06T15:42:35.893Z,95836.75
2024-01-06T15:45:02.641Z,95833.91
2024-01-06T15:47:29.288Z,95827.69
2024-01-06T15:49:56.057Z,95832.09
2024-01-06T15:52:23.092Z,95840.03
2024-01-06T15:54:49.860Z,95838.06
2024-01-06T15:57:16.563Z,95836.03
2024-01-06T15:59:43.269Z,95838.88
2024-01-06T16:02:09.917Z,95840.22
2024-01-06T16:04:36.627Z,95838.47
2024-01-06T16:07:03.304Z,95843.84
2024-01-06T16:09:30.054Z,95837.31
2024-01-06T16:11:56.706Z,95842.16
2024-01-06T16:14:23.277Z,95842.59
2024-01-06T16:16:49.878Z,95845.91
2024-01-06T16:19:16.663Z,95845.59
2024-01-06T16:21:43.617Z,95854.84
2024-01-06T16:24:10.443Z,95854.78
2024-01-06T16:26:37.235Z,95859.06
2024-01-06T16:29:04.061Z,95855.94
2024-01-06T16:31:31.059Z,95857.06
2024-01-06T16:33:57.935Z,95857.31
2024-01-06T16:36:24.861Z,95856.03
2024-01-06T16:38:51.743Z,95854.25
2024-01-06T16:41:20.625Z,95859.13
2024-01-06T16:43:47.597Z,95861.50
2024-01-06T16:46:45.144Z,95859.34
2024-01-06T16:49:14.788Z,95861.53
2024-01-06T16:51:41.751Z,95869.63
2024-01-06T16:54:08.473Z,95864.09
2024-01-06T16:56:35.200Z,95868.88
2024-01-06T16:59:01.886Z,95869.72
2024-01-06T17:01:28.758Z,95869.97
2024-01-06T17:03:55.917Z,95874.16
2024-01-06T17:06:22.564Z,95876.66
2024-01-06T17:08:49.255Z,95869.41
2024-01-06T17:11:15.939Z,95871.19
2024-01-06T17:13:42.579Z,95869.25
2024-01-06T17:16:09.255Z,95879.06
2024-01-06T17:18:36.087Z,95886.19
2024-01-06T17:21:02.807Z,95884.72
2024-01-06T17:23:29.443Z,95888.69
2024-01-06T17:25:56.076Z,95878.06
2024-01-06T17:28:22.845Z,95887.22
2024-01-06T17:30:49.536Z,95886.94
2024-01-06T17:33:16.336Z,95890.66
2024-01-06T17:35:42.959Z,95882.47
2024-01-06T17:38:09.723Z,95884.41
2024-01-06T17:40:36.296Z,95892.28
2024-01-06T17:43:03.061Z,95888.56
2024-01-06T17:45:29.968Z,95891.81
2024-01-06T17:47:56.844Z,95898.97
2024-01-06T17:50:23.672Z,95891.44
2024-01-06T17:52:53.482Z,95905.47
2024-01-06T17:55:20.225Z,95903.59
2024-01-06T17:57:47.040Z,95909.41
2024-01-06T18:00:13.883Z,95908.53
2024-01-06T18:02:40.642Z,95910.13
2024-01-06T18:05:07.918Z,95907.16
2024-01-06T18:07:34.855Z,95909.56
2024-01-06T18:10:01.874Z,95910.84
2024-01-06T18:12:28.719Z,95909.28
2024-01-06T18:14:55.366Z,95914.50
2024-01-06T18:17:21.916Z,95915.22
2024-01-06T18:19:50.586Z,95906.94
2024-01-06T18:22:17.225Z,95901.44
2024-01-06T18:24:43.930Z,95902.59
2024-01-06T18:27:10.589Z,95907.41
2024-01-06T18:29:38.816Z,95910.59
2024-01-06T18:32:05.525Z,95902.94
2024-01-06T18:34:32.577Z,95904.34
2024-01-06T18:36:59.558Z,95903.59
2024-01-06T18:39:26.330Z,95896.59
2024-01-06T18:41:53.028Z,95894.38
2024-01-06T18:44:19.709Z,95895.06
2024-01-06T18:46:47.887Z,95893.44
2024-01-06T18:49:14.579Z,95891.56
2024-01-06T18:51:41.220Z,95897.63
2024-01-06T18:54:07.905Z,95890.53
2024-01-06T18:56:34.492Z,95884.25
2024-01-06T18:59:01.258Z,95886.34
2024-01-06T19:01:30.393Z,95882.03
2024-01-06T19:03:57.136Z,95882.69
2024-01-06T19:06:23.860Z,95879.25
2024-01-06T19:08:50.527Z,95884.19
2024-01-06T19:11:17.305Z,95870.34
2024-01-06T19:13:44.105Z,95865.00
2024-01-06T19:16:10.919Z,95870.53
2024-01-06T19:18:37.785Z,95867.41
2024-01-06T19:21:04.707Z,95875.09
2024-01-06T19:23:31.498Z,95874.16
2024-01-06T19:25:58.277Z,95877.47
2024-01-06T19:28:25.020Z,95872.31
2024-01-06T19:30:51.934Z,95873.59
2024-01-06T19:33:18.899Z,95872.78
2024-01-06T19:35:45.740Z,95877.47
2024-01-06T19:38:12.513Z,95869.81
2024-01-06T19:40:39.308Z,95879.91
2024-01-06T19:43:06.147Z,95879.16
2024-01-06T19:45:33.015Z,95885.09
2024-01-06T19:47:59.893Z,95883.91
2024-01-06T19:50:29.767Z,95886.50
2024-01-06T19:52:56.544Z,95886.59
2024-01-06T19:55:23.336Z,95890.03
2024-01-06T19:57:50.123Z,95886.75
2024-01-06T20:00:16.974Z,95886.28
2024-01-06T20:02:43.725Z,95888.16
2024-01-06T20:05:10.474Z,95886.66
2024-01-06T20:07:37.304Z,95879.16
2024-01-06T20:10:04.263Z,95894.81
2024-01-06T20:12:31.089Z,95882.81
2024-01-06T20:14:57.939Z,95883.69
2024-01-06T20:17:24.734Z,95882.81
2024-01-06T20:19:51.572Z,95877.09
2024-01-06T20:22:18.397Z,95871.06
2024-01-06T20:24:45.284Z,95873.88
2024-01-06T20:27:12.134Z,95874.97
2024-01-06T20:29:41.904Z,95870.66
2024-01-06T20:32:08.889Z,95874.75
2024-01-06T20:34:36.075Z,95865.03
2024-01-06T20:37:02.959Z,95866.47
2024-01-06T20:39:29.833Z,95870.50
2024-01-06T20:41:56.694Z,95868.59
2024-01-06T20:44:23.591Z,95871.34
2024-01-06T20:46:50.482Z,95868.88
2024-01-06T20:49:17.300Z,95869.31
2024-01-06T20:51:44.266Z,95868.06
2024-01-06T20:54:11.074Z,95868.09
2024-01-06T20:56:37.982Z,95869.44
2024-01-06T20:59:04.790Z,95865.91
2024-01-06T21:01:31.729Z,95855.56
2024-01-06T21:03:58.751Z,95858.59
2024-01-06T21:06:27.297Z,95855.09
2024-01-06T21:08:54.171Z,95849.63
2024-01-06T21:11:21.051Z,95855.63
2024-01-06T21:13:49.998Z,95842.53
2024-01-06T21:16:16.831Z,95849.13
2024-01-06T21:18:43.593Z,95849.72
2024-01-06T21:21:10.420Z,95844.94
2024-01-06T21:23:44.909Z,95837.09
2024-01-06T21:26:27.403Z,95836.44
2024-01-06T21:28:54.272Z,95837.13
2024-01-06T21:31:21.148Z,95831.38
2024-01-06T21:33:48.038Z,95835.94
2024-01-06T21:36:15.010Z,95834.22
2024-01-06T21:38:41.729Z,95841.06
2024-01-06T21:41:08.388Z,95831.50
2024-01-06T21:43:35.021Z,95838.31
2024-01-06T21:46:02.110Z,95835.88
2024-01-06T21:48:28.910Z,95824.38
2024-01-06T21:50:56.001Z,95839.72
2024-01-06T21:53:23.088Z,95831.75
2024-01-06T21:55:49.804Z,95828.63
2024-01-06T21:58:16.449Z,95840.84
2024-01-06T22:00:47.422Z,95846.25
2024-01-06T22:03:17.356Z,95840.66
2024-01-06T22:08:34.918Z,95848.56
2024-01-06T22:11:05.044Z,95844.34
2024-01-06T22:13:34.417Z,95845.50
2024-01-06T22:16:04.549Z,95847.81
2024-01-06T22:18:31.650Z,95852.25
2024-01-06T22:20:58.466Z,95854.81
2024-01-06T22:23:28.382Z,95850.75
2024-01-06T22:25:55.009Z,95852.31
2024-01-06T22:28:21.955Z,95846.41
2024-01-06T22:30:48.855Z,95849.25
2024-01-06T22:33:18.353Z,95853.47
2024-01-06T22:35:45.252Z,95854.59
2024-01-06T22:38:11.924Z,95850.84
2024-01-06T22:40:39.061Z,95847.84
2024-01-06T22:43:05.806Z,95853.56
2024-01-06T22:45:32.713Z,95847.78
2024-01-06T22:47:59.532Z,95853.22
2024-01-06T22:50:26.183Z,95853.22
2024-01-06T22:52:52.788Z,95850.03
2024-01-06T22:55:19.365Z,95849.88
2024-01-06T22:57:46.095Z,95851.81
2024-01-06T23:00:12.900Z,95851.47
2024-01-06T23:02:39.516Z,95855.25
2024-01-06T23:05:06.109Z,95852.81
2024-01-06T23:07:32.821Z,95857.28
2024-01-06T23:09:59.483Z,95855.22
2024-01-06T23:12:26.123Z,95854.59
2024-01-06T23:14:52.770Z,95858.47
2024-01-06T23:17:19.402Z,95859.72
2024-01-06T23:19:46.642Z,95861.06
2024-01-06T23:22:13.626Z,95861.44
2024-01-06T23:24:40.558Z,95862.34
2024-01-06T23:27:07.355Z,95860.31
2024-01-06T23:29:37.526Z,95856.50
2024-01-06T23:32:05.222Z,95856.91
2024-01-06T23:34:38.153Z,95859.16
2024-01-06T23:37:09.068Z,95852.16
2024-01-06T23:39:35.725Z,95860.72
2024-01-06T23:42:02.360Z,95849.34
2024-01-06T23:44:29.063Z,95853.97
2024-01-06T23:46:55.660Z,95858.81
2024-01-06T23:49:22.513Z,95849.19
2024-01-06T23:51:49.281Z,95861.38
2024-01-06T23:54:15.928Z,95858.75
2024-01-06T23:56:42.493Z,95859.66
2024-01-06T23:59:09.146Z,95866.81
